createdAt,value
2022-12-06T00:05:02.155Z,13.18
2022-12-06T00:10:06.964Z,13.55
2022-12-06T00:15:09.673Z,13.15
2022-12-06T00:20:12.863Z,12.70
2022-12-06T00:25:17.781Z,12.18
2022-12-06T00:30:20.327Z,15.10
2022-12-06T00:35:22.918Z,14.25
2022-12-06T00:40:28.225Z,14.27
2022-12-06T00:45:30.749Z,14.15
2022-12-06T00:50:33.283Z,16.10
2022-12-06T00:55:37.165Z,14.73
2022-12-06T01:00:39.860Z,14.07
2022-12-06T01:05:42.812Z,13.63
2022-12-06T01:10:53.818Z,15.52
2022-12-06T01:15:57.407Z,14.15
2022-12-06T01:26:03.447Z,10.73
2022-12-06T01:31:08.126Z,13.45
2022-12-06T01:36:16.331Z,13.65
2022-12-06T01:41:20.338Z,14.50
2022-12-06T01:46:28.581Z,16.80
2022-12-06T01:51:31.442Z,16.02
2022-12-06T01:56:35.550Z,15.20
2022-12-06T02:01:39.543Z,12.88
2022-12-06T02:06:42.584Z,15.18
2022-12-06T02:11:47.334Z,15.32
2022-12-06T02:16:56.303Z,15.68
2022-12-06T02:22:03.807Z,13.77
2022-12-06T02:27:14.406Z,15.70
2022-12-06T02:32:19.239Z,13.40
2022-12-06T02:37:23.509Z,12.82
2022-12-06T02:42:27.155Z,12.38
2022-12-06T02:47:33.842Z,12.75
2022-12-06T02:52:38.892Z,12.13
2022-12-06T02:57:42.530Z,12.35
2022-12-06T03:07:49.502Z,11.73
2022-12-06T03:12:56.395Z,13.07
2022-12-06T03:18:00.962Z,14.23
2022-12-06T03:23:07.028Z,13.95
2022-12-06T03:28:11.462Z,13.25
2022-12-06T03:33:14.557Z,12.05
2022-12-06T03:38:20.223Z,13.50
2022-12-06T03:43:22.716Z,14.65
2022-12-06T03:48:28.243Z,12.45
2022-12-06T03:53:32.192Z,15.45
2022-12-06T03:58:34.588Z,13.98
2022-12-06T04:03:37.016Z,14.65
2022-12-06T04:08:40.751Z,13.52
2022-12-06T04:13:43.210Z,12.88
2022-12-06T04:18:45.611Z,13.50
2022-12-06T04:23:50.849Z,11.27
2022-12-06T04:29:11.389Z,10.18
2022-12-06T04:34:31.565Z,9.13
2022-12-06T04:39:35.417Z,10.07
2022-12-06T04:44:37.891Z,9.10
2022-12-06T04:49:40.299Z,9.23
2022-12-06T04:54:44.001Z,10.60
2022-12-06T04:59:47.117Z,8.85
2022-12-06T05:04:49.495Z,11.50
2022-12-06T05:09:53.160Z,9.65
2022-12-06T05:14:55.570Z,11.18
2022-12-06T05:19:58.251Z,10.82
2022-12-06T05:25:02.073Z,11.00
2022-12-06T05:30:04.984Z,9.85
2022-12-06T05:35:07.753Z,11.75
2022-12-06T05:40:12.416Z,12.17
2022-12-06T05:45:14.819Z,10.70
2022-12-06T05:50:17.291Z,11.25
2022-12-06T05:55:21.024Z,9.20
2022-12-06T06:00:23.434Z,10.77
2022-12-06T06:05:25.849Z,10.00
2022-12-06T06:10:29.561Z,9.30
2022-12-06T06:15:31.950Z,8.93
2022-12-06T06:20:34.512Z,9.68
2022-12-06T06:25:40.210Z,8.25
2022-12-06T06:30:42.559Z,8.82
2022-12-06T06:35:44.968Z,7.65
2022-12-06T06:40:48.652Z,8.68
2022-12-06T06:45:54.699Z,7.60
2022-12-06T06:50:58.013Z,9.27
2022-12-06T06:56:04.069Z,10.48
2022-12-06T07:01:07.566Z,10.38
2022-12-06T07:11:15.101Z,9.63
2022-12-06T07:16:17.573Z,9.05
2022-12-06T07:21:19.979Z,9.88
2022-12-06T07:26:24.540Z,9.32
2022-12-06T07:31:27.999Z,9.10
2022-12-06T07:41:51.754Z,9.70
2022-12-06T07:46:55.749Z,8.30
2022-12-06T07:51:58.382Z,10.15
2022-12-06T07:57:02.065Z,8.47
2022-12-06T08:02:04.826Z,9.98
2022-12-06T08:07:07.254Z,9.67
2022-12-06T08:12:10.991Z,9.77
2022-12-06T08:17:13.354Z,9.63
2022-12-06T08:22:15.743Z,9.15
2022-12-06T08:27:19.452Z,9.68
2022-12-06T08:32:21.771Z,10.52
2022-12-06T08:37:24.095Z,11.02
2022-12-06T08:42:27.806Z,9.25
2022-12-06T08:47:30.231Z,8.50
2022-12-06T08:52:32.645Z,8.20
2022-12-06T08:57:36.328Z,8.15
2022-12-06T09:02:39.564Z,8.50
2022-12-06T09:07:41.983Z,11.80
2022-12-06T09:12:45.837Z,21.15
2022-12-06T09:17:48.234Z,12.82
2022-12-06T09:22:50.632Z,6.13
2022-12-06T09:27:54.923Z,4.80
2022-12-06T09:32:57.298Z,4.40
2022-12-06T09:38:00.772Z,3.90
2022-12-06T09:48:23.212Z,3.40
2022-12-06T09:53:32.747Z,3.60
2022-12-06T09:58:43.336Z,3.75
2022-12-06T10:03:52.650Z,2.63
2022-12-06T10:09:04.317Z,2.67
2022-12-06T10:14:13.726Z,3.03
2022-12-06T10:19:23.511Z,2.22
2022-12-06T10:24:38.805Z,2.28
2022-12-06T10:29:45.909Z,2.00
2022-12-06T10:34:54.528Z,2.30
2022-12-06T10:40:00.727Z,2.17
2022-12-06T10:45:27.131Z,1.63
2022-12-06T10:50:31.637Z,1.92
2022-12-06T10:55:37.398Z,1.70
2022-12-06T11:00:43.321Z,2.05
2022-12-06T11:05:48.997Z,1.90
2022-12-06T11:10:53.121Z,1.70
2022-12-06T11:15:58.518Z,1.50
2022-12-06T11:21:02.683Z,1.88
2022-12-06T11:26:10.720Z,1.88
2022-12-06T11:31:26.403Z,2.85
2022-12-06T11:36:29.400Z,2.40
2022-12-06T11:41:34.796Z,2.67
2022-12-06T11:46:37.231Z,2.08
2022-12-06T11:51:40.137Z,1.73
2022-12-06T11:56:43.860Z,2.22
2022-12-06T12:01:47.515Z,2.20
2022-12-06T12:06:51.146Z,2.85
2022-12-06T12:11:57.011Z,2.13
2022-12-06T12:17:00.454Z,2.08
2022-12-06T12:27:27.157Z,2.30
2022-12-06T12:32:30.886Z,2.27
2022-12-06T12:37:33.305Z,2.20
2022-12-06T12:42:40.005Z,2.17
2022-12-06T12:47:56.281Z,1.90
2022-12-06T12:52:59.169Z,2.28
2022-12-06T12:58:03.223Z,2.53
2022-12-06T13:03:28.589Z,2.50
2022-12-06T13:08:35.383Z,2.88
2022-12-06T13:13:41.931Z,2.72
2022-12-06T13:18:47.844Z,2.47
2022-12-06T13:23:52.467Z,2.72
2022-12-06T13:28:57.508Z,2.58
2022-12-06T13:34:01.315Z,2.67
2022-12-06T13:39:18.609Z,2.20
2022-12-06T13:44:35.913Z,2.25
2022-12-06T13:49:48.868Z,2.53
2022-12-06T13:54:51.539Z,2.43
2022-12-06T13:59:53.982Z,2.33
2022-12-06T14:04:57.841Z,2.58
2022-12-06T14:10:08.168Z,2.60
2022-12-06T14:15:18.165Z,2.03
2022-12-06T14:20:23.941Z,2.40
2022-12-06T14:25:28.463Z,1.98
2022-12-06T14:30:30.964Z,2.22
2022-12-06T14:35:36.738Z,2.53
2022-12-06T14:40:55.105Z,2.20
2022-12-06T14:45:58.570Z,2.65
2022-12-06T14:56:05.948Z,2.60
2022-12-06T15:01:15.348Z,3.85
2022-12-06T15:06:19.132Z,2.80
2022-12-06T15:11:43.044Z,3.30
2022-12-06T15:16:46.381Z,4.43
2022-12-06T15:21:50.909Z,4.35
2022-12-06T15:26:55.027Z,3.40
2022-12-06T15:31:57.477Z,3.55
2022-12-06T15:37:38.290Z,4.15
2022-12-06T15:42:25.300Z,8.10
2022-12-06T15:47:27.733Z,4.95
2022-12-06T15:52:30.596Z,6.93
2022-12-06T15:57:34.305Z,14.70
2022-12-06T16:02:36.685Z,11.73
2022-12-06T16:07:39.165Z,10.00
2022-12-06T16:12:56.876Z,9.77
2022-12-06T16:17:59.238Z,7.50
2022-12-06T16:23:19.998Z,6.53
2022-12-06T16:28:23.913Z,5.60
2022-12-06T16:33:28.280Z,5.97
2022-12-06T16:38:31.220Z,7.20
2022-12-06T16:43:35.110Z,7.90
2022-12-06T16:48:37.489Z,11.13
2022-12-06T16:53:39.865Z,8.82
2022-12-06T16:58:43.612Z,8.98
2022-12-06T17:03:49.405Z,9.05
2022-12-06T17:08:52.128Z,10.73
2022-12-06T17:13:55.825Z,11.37
2022-12-06T17:18:58.281Z,11.20
2022-12-06T17:24:01.353Z,13.88
2022-12-06T17:29:05.643Z,12.95
2022-12-06T17:34:09.213Z,11.23
2022-12-06T17:44:15.412Z,12.15
2022-12-06T17:49:19.061Z,13.20
2022-12-06T17:59:25.617Z,14.70
2022-12-06T18:04:28.574Z,13.65
2022-12-06T18:09:30.962Z,16.30
2022-12-06T18:14:34.776Z,16.35
2022-12-06T18:19:40.304Z,16.48
2022-12-06T18:24:43.129Z,17.38
2022-12-06T18:29:47.033Z,18.17
2022-12-06T18:34:49.385Z,20.35
2022-12-06T18:39:51.802Z,20.73
2022-12-06T18:44:58.493Z,23.38
2022-12-06T18:50:01.180Z,23.17
2022-12-06T18:55:03.830Z,23.77
2022-12-06T19:00:09.284Z,23.98
2022-12-06T19:05:11.805Z,24.85
2022-12-06T19:10:14.281Z,27.13
2022-12-06T19:15:18.065Z,26.75
2022-12-06T19:20:20.545Z,26.83
2022-12-06T19:25:23.026Z,25.50
2022-12-06T19:30:26.845Z,28.25
2022-12-06T19:35:29.330Z,26.83
2022-12-06T19:40:31.733Z,25.83
2022-12-06T19:45:35.709Z,25.77
2022-12-06T19:50:38.243Z,26.80
2022-12-06T19:55:46.013Z,26.17
2022-12-06T20:00:50.672Z,27.60
2022-12-06T20:06:00.346Z,24.70
2022-12-06T20:11:03.119Z,27.40
2022-12-06T20:16:07.098Z,26.30
2022-12-06T20:21:09.515Z,27.25
2022-12-06T20:26:15.044Z,27.45
2022-12-06T20:31:19.883Z,24.25
2022-12-06T20:36:22.761Z,23.15
2022-12-06T20:41:26.674Z,22.83
2022-12-06T20:46:32.513Z,21.83
2022-12-06T20:51:34.959Z,23.70
2022-12-06T20:56:39.116Z,18.75
2022-12-06T21:01:43.143Z,19.85
2022-12-06T21:06:45.641Z,19.80
2022-12-06T21:11:48.567Z,20.25
2022-12-06T21:16:52.269Z,18.80
2022-12-06T21:21:57.742Z,19.15
2022-12-06T21:27:00.164Z,16.48
2022-12-06T21:32:03.963Z,18.23
2022-12-06T21:37:06.565Z,16.65
2022-12-06T21:42:15.300Z,16.40
2022-12-06T21:47:19.168Z,15.27
2022-12-06T21:52:21.607Z,14.15
2022-12-06T21:57:24.154Z,15.30
2022-12-06T22:02:28.024Z,14.30
2022-12-06T22:07:32.838Z,15.30
2022-12-06T22:12:36.354Z,19.75
2022-12-06T22:17:40.099Z,24.70
2022-12-06T22:22:42.498Z,15.65
2022-12-06T22:27:44.947Z,22.45
2022-12-06T22:32:48.849Z,20.75
2022-12-06T22:37:52.281Z,18.40
2022-12-06T22:42:54.765Z,16.45
2022-12-06T22:47:58.499Z,16.20
2022-12-06T22:53:00.879Z,16.08
2022-12-06T22:58:03.254Z,17.00
2022-12-06T23:03:07.027Z,17.13
2022-12-06T23:08:09.433Z,16.63
2022-12-06T23:13:11.877Z,18.15
2022-12-06T23:18:15.608Z,14.98
2022-12-06T23:23:18.036Z,14.88
2022-12-06T23:28:20.536Z,13.38
2022-12-06T23:33:24.242Z,14.75
2022-12-06T23:38:26.594Z,14.43
2022-12-06T23:43:29.016Z,16.15
2022-12-06T23:48:32.755Z,16.33
2022-12-06T23:53:35.530Z,14.25
2022-12-06T23:58:38.001Z,15.93
